North Town, Illinois
Current Conditions -  °F | °C
As of 2:44 PM on Monday 26 Jan 2015 (Local Time) from KORD Reporting Station
Light Snow Light Snow  
Wind Chill: 19°   Ceiling: 2400
Heat Index: 26°   Visibility: 2mi
Dew Point: 20°   Wind: 6mph
Humidity: 78%   Direction: 170°S
Pressure: 29.86"   Gusts: NA
Location:  42.004°N, 87.7052°W
Report Text: KORD 262044Z 17005KT 2SM R10L/6000VP6000FT -SN BKN024 BKN029 OVC035 M03/M07 A2986 RMK AO2 P0000 T10331067
Loading
Personal Weather Stations






























Interactive Weather Map New forecast layout! Learn more

10-Day Weather Forecast

Advertisements
Track Severe Weather on mobile